Monday, January 21, 2019, 5:46 PM EST
Back to Local

KIWI, Wiscasset Municipal Airport

Location: Wiscasset, ME, United States Lat: 43.967
Local Time: 5:46 PM EST (22:46 GMT) Lon: -69.717
Time Zone: US/Eastern Elev: 68 ft

Show me the last for .
Show Decoded

2019-01-21 16:53 METAR KIWI 212153Z AUTO 32007G18KT 280V030 10SM BKN060 OVC075 M17/M23 A2981 RMK
                 AO2 SLP098 T11671233 =
2019-01-21 15:53 METAR KIWI 212053Z AUTO 32010G17KT 250V350 10SM SCT060 BKN075 OVC090 M16/M23
                 A2977 RMK AO2 SLP083 T11611233 53026 =
2019-01-21 14:53 METAR KIWI 211953Z AUTO 32010G17KT 280V350 10SM SCT055 BKN070 OVC085 M16/M24
                 A2974 RMK AO2 SLP071 T11561239 =
2019-01-21 13:53 METAR KIWI 211853Z AUTO 33009G19KT 260V040 10SM OVC085 M15/M24 A2970 RMK AO2
                 SLP059 T11501244 =
2019-01-21 12:53 METAR KIWI 211753Z AUTO 30009G19KT 10SM FEW039 SCT055 OVC080 M15/M24 A2969 RMK
                 AO2 SLP056 T11501239 11144 21156 51010 =
2019-01-21 11:53 METAR KIWI 211653Z AUTO 29007KT 240V330 10SM FEW050 OVC075 M14/M23 A2969 RMK AO2
                 SLP054 T11441233 =
2019-01-21 10:53 METAR KIWI 211553Z AUTO 31010G17KT 250V330 10SM OVC070 M15/M23 A2969 RMK AO2
                 SLP054 T11501233 =
2019-01-21 09:53 METAR KIWI 211453Z AUTO 33007G14KT 280V360 10SM OVC065 M15/M23 A2966 RMK AO2
                 SLP046 T11501228 51036 =
2019-01-21 08:53 METAR KIWI 211353Z AUTO 31007KT 270V350 10SM OVC060 M16/M23 A2963 RMK AO2 SLP034
                 T11561228 =
2019-01-21 07:53 METAR KIWI 211253Z AUTO 32008G16KT 280V010 10SM OVC050 M15/M22 A2959 RMK AO2
                 SLP023 T11501222 =
2019-01-21 06:53 METAR KIWI 211153Z AUTO 31008KT 270V360 10SM OVC050 M15/M22 A2956 RMK AO2 SLP010
                 70049 T11501222 11122 21150 53024 =
2019-01-21 05:53 METAR KIWI 211053Z AUTO VRB06KT 10SM OVC050 M15/M22 A2953 RMK AO2 SLP999
                 T11501217 =
2019-01-21 04:53 METAR KIWI 210953Z AUTO VRB05KT 10SM OVC050 M14/M22 A2951 RMK AO2 SLP992
                 T11441217 =
2019-01-21 03:53 METAR KIWI 210853Z AUTO VRB06KT 10SM OVC049 M14/M21 A2949 RMK AO2 SLP986
                 T11441211 51026 =
2019-01-21 02:53 METAR KIWI 210753Z AUTO 30008G19KT 270V350 10SM OVC046 M14/M21 A2947 RMK AO2
                 SLP981 T11391206 =
2019-01-21 01:53 METAR KIWI 210653Z AUTO VRB03KT 10SM OVC050 M13/M19 A2943 RMK AO2 SLP967
                 T11281194 =
2019-01-21 00:53 METAR KIWI 210553Z AUTO VRB05G16KT 10SM OVC055 M12/M19 A2941 RMK AO2 SLP960
                 60001 T11221189 11100 21122 51027 =
2019-01-20 23:53 METAR KIWI 210453Z AUTO VRB04G18KT 10SM FEW055 M12/M18 A2939 RMK AO2 SLP953
                 T11171183 411001150 =
2019-01-20 22:53 METAR KIWI 210353Z AUTO VRB06KT 10SM OVC060 M10/M15 A2936 RMK AO2 SLP944
                 T11001150 =
2019-01-20 21:53 METAR KIWI 210253Z AUTO VRB03KT 10SM OVC036 M10/M14 A2933 RMK AO2 SLP933 60001
                 T11001144 53010 =
2019-01-20 20:53 METAR KIWI 210153Z AUTO VRB05KT 10SM FEW024 OVC040 M11/M13 A2931 RMK AO2
                 UPB17E22 SLP927 P0001 T11061133 =
2019-01-20 19:53 METAR KIWI 210053Z AUTO 35007KT 300V100 10SM OVC038 M11/M13 A2930 RMK AO2
                 UPE2354SNB2354E2355B11E25 SLP922 P0000 T11111133 =
2019-01-20 19:25 METAR KIWI 210025Z AUTO 36009G17KT 280V040 3SM BR SCT022 OVC030 M11/M13 A2930
                 RMK AO2 UPE2354SNB2354E2355B11E25 P0000 T11111133 =
2019-01-20 19:15 METAR KIWI 210015Z AUTO VRB06KT 2SM -SN BR OVC022 M11/M13 A2930 RMK AO2
                 UPE2354SNB2354E2355B11 P0000 T11111133 =
2019-01-20 19:04 METAR KIWI 210004Z AUTO VRB05KT 3SM BR FEW019 OVC027 M11/M13 A2930 RMK AO2
                 UPE2354SNB2354E2355 P0000 T11111133 =
2019-01-20 18:53 METAR KIWI 202353Z AUTO VRB03KT 2 1/2SM UP BR FEW018 OVC027 M12/M13 A2930 RMK
                 AO2 UPB46SNE46B47E50 SLP923 P0000 60006 T11171133 11117 21139 58005 =
2019-01-20 18:38 METAR KIWI 202338Z AUTO 02007G19KT 320V100 2SM -SN BR BKN018 OVC026 M12/M14
                 A2930 RMK AO2 P0000 T11171139 =
2019-01-20 18:20 METAR KIWI 202320Z AUTO VRB04G18KT 1 1/4SM -SN BR OVC015 M13/M14 A2932 RMK AO2
                 P0000 T11281144 =
2019-01-20 17:53 METAR KIWI 202253Z AUTO 35008KT 1 1/2SM -SN BR OVC015 M13/M15 A2932 RMK AO2
                 SLP929 P0000 T11331150 =

Support USWX by starting your Amazon purchase here.